createdAt,value
2022-08-27T00:01:22.220Z,92687.78
2022-08-27T00:02:54.068Z,92693.16
2022-08-27T00:04:25.872Z,92690.78
2022-08-27T00:05:57.578Z,92689.97
2022-08-27T00:07:29.369Z,92687.25
2022-08-27T00:09:01.019Z,92686.91
2022-08-27T00:10:34.151Z,92685.78
2022-08-27T00:12:05.823Z,92690.88
2022-08-27T00:13:37.705Z,92682.72
2022-08-27T00:15:11.012Z,92685.44
2022-08-27T00:16:43.213Z,92684.66
2022-08-27T00:18:14.952Z,92676.13
2022-08-27T00:19:46.566Z,92683.53
2022-08-27T00:21:19.001Z,92685.56
2022-08-27T00:22:50.908Z,92679.75
2022-08-27T00:24:24.090Z,92679.75
2022-08-27T00:25:56.326Z,92670.00
2022-08-27T00:27:29.237Z,92671.94
2022-08-27T00:29:00.806Z,92673.09
2022-08-27T00:30:32.794Z,92660.63
2022-08-27T00:32:04.788Z,92663.66
2022-08-27T00:33:36.702Z,92665.94
2022-08-27T00:35:08.687Z,92666.56
2022-08-27T00:36:40.627Z,92665.72
2022-08-27T00:38:12.654Z,92666.88
2022-08-27T00:39:44.358Z,92664.16
2022-08-27T00:41:17.173Z,92662.66
2022-08-27T00:42:50.351Z,92666.19
2022-08-27T00:44:22.678Z,92664.69
2022-08-27T00:45:55.993Z,92663.22
2022-08-27T00:47:28.514Z,92667.06
2022-08-27T00:49:01.569Z,92662.75
2022-08-27T00:50:33.241Z,92668.22
2022-08-27T00:52:06.235Z,92665.06
2022-08-27T00:53:37.866Z,92678.22
2022-08-27T00:55:10.467Z,92670.47
2022-08-27T00:56:48.691Z,92665.78
2022-08-27T00:58:23.768Z,92675.50
2022-08-27T00:59:55.443Z,92667.31
2022-08-27T01:01:29.151Z,92667.59
2022-08-27T01:03:00.727Z,92672.13
2022-08-27T01:04:33.286Z,92669.25
2022-08-27T01:06:06.563Z,92676.13
2022-08-27T01:07:39.076Z,92678.38
2022-08-27T01:09:12.671Z,92679.09
2022-08-27T01:10:44.533Z,92677.50
2022-08-27T01:12:16.523Z,92680.94
2022-08-27T01:13:59.625Z,92673.88
2022-08-27T01:15:32.709Z,92672.56
2022-08-27T01:17:06.008Z,92684.16
2022-08-27T01:18:37.768Z,92678.22
2022-08-27T01:20:11.747Z,92669.91
2022-08-27T01:21:47.018Z,92674.41
2022-08-27T01:23:20.951Z,92670.28
2022-08-27T01:24:56.490Z,92667.44
2022-08-27T01:26:28.190Z,92668.50
2022-08-27T01:28:00.883Z,92664.88
2022-08-27T01:29:32.716Z,92668.41
2022-08-27T01:31:05.268Z,92664.47
2022-08-27T01:32:37.126Z,92666.31
2022-08-27T01:34:08.934Z,92663.16
2022-08-27T01:35:41.250Z,92659.56
2022-08-27T01:37:13.014Z,92666.19
2022-08-27T01:38:44.619Z,92664.25
2022-08-27T01:40:16.954Z,92668.91
2022-08-27T01:41:48.604Z,92670.09
2022-08-27T01:43:24.222Z,92669.75
2022-08-27T01:44:59.346Z,92671.22
2022-08-27T01:46:31.160Z,92677.84
2022-08-27T01:48:03.226Z,92673.94
2022-08-27T01:49:34.863Z,92667.38
2022-08-27T01:51:06.767Z,92681.06
2022-08-27T01:52:38.369Z,92672.09
2022-08-27T01:54:11.047Z,92677.53
2022-08-27T01:55:47.563Z,92677.53
2022-08-27T01:57:25.259Z,92679.91
2022-08-27T01:58:57.570Z,92675.69
2022-08-27T02:00:34.227Z,92684.28
2022-08-27T02:02:06.236Z,92678.41
2022-08-27T02:03:37.953Z,92674.47
2022-08-27T02:05:09.669Z,92683.31
2022-08-27T02:06:41.384Z,92675.53
2022-08-27T02:08:13.790Z,92681.31
2022-08-27T02:09:46.492Z,92678.53
2022-08-27T02:11:18.252Z,92689.31
2022-08-27T02:12:49.936Z,92680.28
2022-08-27T02:14:21.679Z,92687.22
2022-08-27T02:15:53.441Z,92680.22
2022-08-27T02:17:25.297Z,92687.94
2022-08-27T02:18:57.073Z,92677.84
2022-08-27T02:21:00.142Z,92689.06
2022-08-27T02:22:32.571Z,92696.78
2022-08-27T02:24:04.384Z,92688.63
2022-08-27T02:25:36.134Z,92692.13
2022-08-27T02:27:08.046Z,92691.78
2022-08-27T02:28:40.115Z,92695.63
2022-08-27T02:30:12.346Z,92700.19
2022-08-27T02:31:44.542Z,92701.34
2022-08-27T02:33:17.638Z,92704.41
2022-08-27T02:34:49.596Z,92710.19
2022-08-27T02:36:21.318Z,92711.31
2022-08-27T02:37:52.961Z,92706.78
2022-08-27T02:39:24.653Z,92706.84
2022-08-27T02:40:56.168Z,92714.19
2022-08-27T02:42:31.548Z,92719.47
2022-08-27T02:44:10.164Z,92715.44
2022-08-27T02:45:43.368Z,92712.19
2022-08-27T02:47:15.537Z,92712.09
2022-08-27T02:48:47.201Z,92713.63
2022-08-27T02:50:18.852Z,92711.25
2022-08-27T02:51:53.693Z,92712.03
2022-08-27T02:53:25.530Z,92711.25
2022-08-27T02:54:57.386Z,92708.53
2022-08-27T02:56:30.268Z,92710.38
2022-08-27T02:58:02.077Z,92716.47
2022-08-27T02:59:33.831Z,92714.91
2022-08-27T03:01:05.656Z,92718.06
2022-08-27T03:02:43.138Z,92715.44
2022-08-27T03:04:15.283Z,92719.75
2022-08-27T03:05:47.633Z,92718.59
2022-08-27T03:07:19.871Z,92723.31
2022-08-27T03:08:52.955Z,92717.88
2022-08-27T03:10:24.987Z,92721.66
2022-08-27T03:11:56.983Z,92729.59
2022-08-27T03:13:28.707Z,92732.69
2022-08-27T03:15:00.466Z,92729.19
2022-08-27T03:16:35.702Z,92732.25
2022-08-27T03:18:19.818Z,92732.94
2022-08-27T03:19:51.468Z,92738.72
2022-08-27T03:21:24.519Z,92734.66
2022-08-27T03:22:56.380Z,92727.66
2022-08-27T03:24:28.043Z,92734.22
2022-08-27T03:26:02.096Z,92730.59
2022-08-27T03:27:33.781Z,92732.88
2022-08-27T03:29:09.301Z,92730.88
2022-08-27T03:36:12.088Z,92738.69
2022-08-27T03:37:43.773Z,92743.66
2022-08-27T03:39:15.377Z,92739.72
2022-08-27T03:40:47.306Z,92742.41
2022-08-27T03:42:18.871Z,92735.41
2022-08-27T03:43:53.065Z,92731.91
2022-08-27T03:45:24.704Z,92726.47
2022-08-27T03:46:56.362Z,92732.25
2022-08-27T03:48:29.170Z,92734.09
2022-08-27T03:50:00.997Z,92730.03
2022-08-27T03:51:32.688Z,92734.22
2022-08-27T03:53:04.234Z,92735.63
2022-08-27T03:54:36.408Z,92738.22
2022-08-27T03:56:08.415Z,92735.19
2022-08-27T03:57:40.870Z,92741.06
2022-08-27T03:59:12.450Z,92737.56
2022-08-27T04:00:44.206Z,92747.16
2022-08-27T04:02:16.594Z,92745.25
2022-08-27T04:03:48.497Z,92745.13
2022-08-27T04:05:20.229Z,92744.34
2022-08-27T04:06:51.927Z,92748.22
2022-08-27T04:08:23.764Z,92747.06
2022-08-27T04:09:55.608Z,92750.94
2022-08-27T04:11:31.703Z,92745.84
2022-08-27T04:21:08.849Z,92751.41
2022-08-27T04:22:40.539Z,92753.44
2022-08-27T04:24:12.351Z,92754.75
2022-08-27T04:25:44.238Z,92753.72
2022-08-27T04:27:16.569Z,92757.41
2022-08-27T04:28:48.856Z,92757.50
2022-08-27T04:30:20.625Z,92764.28
2022-08-27T04:31:52.735Z,92754.66
2022-08-27T04:33:24.296Z,92758.25
2022-08-27T04:34:56.624Z,92758.34
2022-08-27T04:36:28.330Z,92755.28
2022-08-27T04:38:00.247Z,92762.28
2022-08-27T04:39:31.969Z,92767.03
2022-08-27T04:41:27.478Z,92767.13
2022-08-27T04:42:59.127Z,92772.28
2022-08-27T04:44:31.637Z,92769.38
2022-08-27T04:46:03.593Z,92766.09
2022-08-27T04:47:35.447Z,92764.22
2022-08-27T04:49:15.702Z,92774.16
2022-08-27T04:50:47.460Z,92769.66
2022-08-27T04:52:19.034Z,92769.81
2022-08-27T04:53:51.123Z,92770.06
2022-08-27T04:55:22.892Z,92761.66
2022-08-27T04:56:54.546Z,92773.84
2022-08-27T04:58:26.572Z,92769.28
2022-08-27T04:59:58.092Z,92772.47
2022-08-27T05:01:30.015Z,92766.03
2022-08-27T05:03:02.499Z,92772.00
2022-08-27T05:04:36.792Z,92772.50
2022-08-27T05:06:08.654Z,92773.38
2022-08-27T05:07:40.630Z,92770.09
2022-08-27T05:09:15.485Z,92769.91
2022-08-27T05:10:49.011Z,92773.19
2022-08-27T05:12:20.819Z,92774.16
2022-08-27T05:13:52.672Z,92772.00
2022-08-27T05:15:24.794Z,92766.00
2022-08-27T05:16:58.068Z,92769.28
2022-08-27T05:18:29.866Z,92772.66
2022-08-27T05:20:01.522Z,92768.91
2022-08-27T05:21:33.915Z,92761.69
2022-08-27T05:23:05.727Z,92763.38
2022-08-27T05:24:37.562Z,92767.38
2022-08-27T05:26:09.687Z,92769.88
2022-08-27T05:27:41.250Z,92773.09
2022-08-27T05:29:13.579Z,92771.22
2022-08-27T05:30:52.228Z,92772.47
2022-08-27T05:32:26.860Z,92771.47
2022-08-27T05:33:58.482Z,92769.22
2022-08-27T05:35:32.719Z,92779.41
2022-08-27T05:37:04.385Z,92774.88
2022-08-27T05:38:36.800Z,92781.66
2022-08-27T05:40:08.951Z,92777.50
2022-08-27T05:41:40.725Z,92774.06
2022-08-27T05:43:15.996Z,92776.84
2022-08-27T05:44:48.247Z,92780.91
2022-08-27T05:46:20.645Z,92782.91
2022-08-27T05:47:52.576Z,92783.31
2022-08-27T05:49:24.308Z,92781.00
2022-08-27T05:50:56.850Z,92775.53
2022-08-27T05:52:28.899Z,92779.53
2022-08-27T05:54:08.623Z,92784.72
2022-08-27T05:55:41.468Z,92783.28
2022-08-27T05:57:13.177Z,92779.31
2022-08-27T05:59:03.885Z,92781.16
2022-08-27T06:01:02.199Z,92786.06
2022-08-27T06:02:37.541Z,92783.94
2022-08-27T06:04:09.841Z,92782.19
2022-08-27T06:05:41.858Z,92782.75
2022-08-27T06:07:14.372Z,92784.81
2022-08-27T06:08:46.061Z,92790.34
2022-08-27T06:10:18.034Z,92788.50
2022-08-27T06:11:49.788Z,92783.91
2022-08-27T06:13:21.525Z,92784.78
2022-08-27T06:15:15.975Z,92785.31
2022-08-27T06:16:48.717Z,92790.09
2022-08-27T06:18:20.562Z,92787.41
2022-08-27T06:19:52.277Z,92784.72
2022-08-27T06:21:24.950Z,92789.47
2022-08-27T06:22:57.282Z,92788.34
2022-08-27T06:24:32.602Z,92785.63
2022-08-27T06:33:48.309Z,92795.19
2022-08-27T06:35:20.450Z,92790.06
2022-08-27T06:36:53.889Z,92791.28
2022-08-27T06:38:25.549Z,92799.97
2022-08-27T06:39:57.295Z,92800.38
2022-08-27T06:41:29.705Z,92798.38
2022-08-27T06:43:01.793Z,92801.16
2022-08-27T06:44:34.037Z,92801.16
2022-08-27T06:46:09.177Z,92805.09
2022-08-27T06:50:56.706Z,92808.28
2022-08-27T06:54:59.353Z,92800.53
2022-08-27T06:56:31.809Z,92797.81
2022-08-27T06:58:03.785Z,92796.63
2022-08-27T06:59:35.630Z,92801.72
2022-08-27T07:01:22.898Z,92800.13
2022-08-27T07:02:55.070Z,92798.59
2022-08-27T07:06:05.338Z,92786.44
2022-08-27T07:07:43.198Z,92790.75
2022-08-27T07:09:17.068Z,92799.78
2022-08-27T07:10:49.177Z,92790.03
2022-08-27T07:12:21.828Z,92789.59
2022-08-27T07:14:02.376Z,92789.19
2022-08-27T07:15:35.458Z,92794.59
2022-08-27T07:17:11.059Z,92788.69
2022-08-27T07:18:47.912Z,92791.81
2022-08-27T07:20:20.777Z,92794.84
2022-08-27T07:21:52.502Z,92794.81
2022-08-27T07:23:24.104Z,92788.16
2022-08-27T07:24:56.273Z,92788.56
2022-08-27T07:26:28.835Z,92795.56
2022-08-27T07:28:01.559Z,92795.88
2022-08-27T07:29:33.245Z,92798.16
2022-08-27T07:31:05.773Z,92798.88
2022-08-27T07:32:37.688Z,92800.38
2022-08-27T07:34:09.544Z,92805.06
2022-08-27T07:35:41.414Z,92810.19
2022-08-27T07:37:13.226Z,92799.91
2022-08-27T07:38:45.083Z,92803.03
2022-08-27T07:40:28.690Z,92800.63
2022-08-27T07:42:20.059Z,92803.66
2022-08-27T07:44:10.305Z,92799.56
2022-08-27T07:45:47.923Z,92808.09
2022-08-27T07:47:20.177Z,92807.19
2022-08-27T07:48:52.160Z,92800.75
2022-08-27T07:50:24.063Z,92808.25
2022-08-27T07:51:56.004Z,92805.84
2022-08-27T07:53:27.921Z,92811.31
2022-08-27T07:54:59.746Z,92809.72
2022-08-27T07:56:31.934Z,92810.50
2022-08-27T07:58:03.869Z,92809.53
2022-08-27T07:59:38.235Z,92814.44
2022-08-27T08:01:10.317Z,92811.91
2022-08-27T08:02:45.420Z,92808.72
2022-08-27T08:04:20.295Z,92811.00
2022-08-27T08:05:53.603Z,92806.59
2022-08-27T08:07:25.845Z,92813.56
2022-08-27T08:08:59.134Z,92805.69
2022-08-27T08:10:35.323Z,92803.53
2022-08-27T08:12:07.782Z,92804.41
2022-08-27T08:13:41.373Z,92803.44
2022-08-27T08:15:13.362Z,92809.31
2022-08-27T08:16:45.675Z,92804.00
2022-08-27T08:18:17.603Z,92804.38
2022-08-27T08:20:15.509Z,92806.59
2022-08-27T08:21:45.133Z,92806.38
2022-08-27T08:23:16.908Z,92806.38
2022-08-27T08:24:48.867Z,92796.66
2022-08-27T08:26:22.545Z,92802.19
2022-08-27T08:27:54.765Z,92802.66
2022-08-27T08:29:27.097Z,92806.44
2022-08-27T08:30:59.217Z,92798.69
2022-08-27T08:32:30.997Z,92799.31
2022-08-27T08:34:03.153Z,92803.75
2022-08-27T08:35:39.466Z,92802.53
2022-08-27T08:37:14.603Z,92803.31
2022-08-27T08:38:46.683Z,92805.00
2022-08-27T08:40:44.768Z,92808.69
2022-08-27T08:42:33.084Z,92811.19
2022-08-27T08:44:09.258Z,92808.88
2022-08-27T08:45:41.461Z,92805.91
2022-08-27T08:47:17.477Z,92806.63
2022-08-27T08:48:49.825Z,92807.78
2022-08-27T08:50:26.566Z,92807.63
2022-08-27T08:52:00.684Z,92804.81
2022-08-27T08:53:38.778Z,92803.25
2022-08-27T08:55:24.305Z,92806.75
2022-08-27T08:56:57.720Z,92798.28
2022-08-27T08:58:32.827Z,92796.94
2022-08-27T09:00:15.503Z,92801.28
2022-08-27T09:01:49.273Z,92799.63
2022-08-27T09:03:21.166Z,92799.31
2022-08-27T09:04:54.117Z,92788.47
2022-08-27T09:06:27.949Z,92791.84
2022-08-27T09:08:33.079Z,92790.41
2022-08-27T09:10:11.207Z,92789.34
2022-08-27T09:11:46.921Z,92788.66
2022-08-27T09:13:23.618Z,92787.38
2022-08-27T09:14:58.088Z,92782.56
2022-08-27T09:16:33.154Z,92784.38
2022-08-27T09:18:08.855Z,92789.34
2022-08-27T09:19:46.038Z,92794.22
2022-08-27T09:21:18.435Z,92784.44
2022-08-27T09:23:23.261Z,92785.13
2022-08-27T09:25:00.887Z,92780.19
2022-08-27T09:26:33.336Z,92783.50
2022-08-27T09:28:33.060Z,92785.31
2022-08-27T09:30:06.616Z,92779.97
2022-08-27T09:31:41.172Z,92781.38
2022-08-27T09:33:13.577Z,92782.13
2022-08-27T09:34:45.522Z,92780.06
2022-08-27T09:36:21.625Z,92785.16
2022-08-27T09:37:56.254Z,92772.91
2022-08-27T09:39:35.684Z,92776.03
2022-08-27T09:41:08.194Z,92774.81
2022-08-27T09:42:49.696Z,92779.38
2022-08-27T09:44:23.114Z,92778.28
2022-08-27T09:45:56.247Z,92774.09
2022-08-27T09:47:28.088Z,92775.13
2022-08-27T09:49:10.090Z,92769.81
2022-08-27T09:50:43.878Z,92779.41
2022-08-27T09:52:32.487Z,92771.19
2022-08-27T09:54:09.520Z,92775.00
2022-08-27T09:55:47.056Z,92767.34
2022-08-27T09:57:30.729Z,92773.78
2022-08-27T09:59:27.168Z,92775.44
2022-08-27T10:01:00.371Z,92768.22
2022-08-27T10:02:31.966Z,92768.09
2022-08-27T10:04:11.294Z,92771.25
2022-08-27T10:05:54.252Z,92768.59
2022-08-27T10:07:29.115Z,92768.72
2022-08-27T10:09:07.073Z,92759.94
2022-08-27T10:10:41.090Z,92765.25
2022-08-27T10:12:18.465Z,92760.47
2022-08-27T10:13:57.583Z,92760.03
2022-08-27T10:15:30.548Z,92768.22
2022-08-27T10:17:12.011Z,92756.91
2022-08-27T10:18:50.393Z,92759.88
2022-08-27T10:20:31.239Z,92761.00
2022-08-27T10:22:19.893Z,92758.75
2022-08-27T10:23:57.556Z,92759.44
2022-08-27T10:25:32.257Z,92761.63
2022-08-27T10:27:23.880Z,92762.63
2022-08-27T10:29:02.107Z,92763.03
2022-08-27T10:30:39.707Z,92755.66
2022-08-27T10:32:25.911Z,92754.78
2022-08-27T10:34:17.393Z,92759.88
2022-08-27T10:36:01.406Z,92766.41
2022-08-27T10:37:36.728Z,92758.72
2022-08-27T10:39:19.829Z,92764.78
2022-08-27T10:41:13.538Z,92761.16
2022-08-27T10:42:45.300Z,92763.53
2022-08-27T10:44:24.301Z,92764.09
2022-08-27T10:46:05.280Z,92756.66
2022-08-27T10:47:46.833Z,92752.75
2022-08-27T10:49:21.559Z,92754.06
2022-08-27T10:51:20.044Z,92764.19
2022-08-27T10:52:53.102Z,92765.56
2022-08-27T10:54:31.245Z,92764.69
2022-08-27T10:56:09.394Z,92771.13
2022-08-27T10:58:01.314Z,92767.41
2022-08-27T10:59:59.437Z,92754.38
2022-08-27T11:01:39.492Z,92758.06
2022-08-27T11:03:12.308Z,92752.69
2022-08-27T11:04:53.301Z,92756.84
2022-08-27T11:06:36.020Z,92750.94
2022-08-27T11:08:27.556Z,92751.81
2022-08-27T11:10:21.115Z,92756.97
2022-08-27T11:12:13.881Z,92754.38
2022-08-27T11:13:47.190Z,92754.97
2022-08-27T11:15:23.209Z,92744.63
2022-08-27T11:16:56.120Z,92744.66
2022-08-27T11:18:40.238Z,92746.56
2022-08-27T11:20:16.374Z,92740.50
2022-08-27T11:21:59.501Z,92746.41
2022-08-27T11:23:31.188Z,92743.25
2022-08-27T11:25:05.921Z,92741.88
2022-08-27T11:26:37.934Z,92736.59
2022-08-27T11:28:10.769Z,92733.47
2022-08-27T11:30:00.181Z,92728.06
2022-08-27T11:31:36.217Z,92730.00
2022-08-27T11:33:13.736Z,92733.44
2022-08-27T11:35:02.959Z,92729.25
2022-08-27T11:36:54.114Z,92729.94
2022-08-27T11:38:36.396Z,92729.22
2022-08-27T11:40:19.177Z,92726.78
2022-08-27T11:41:50.904Z,92725.84
2022-08-27T11:43:23.754Z,92727.25
2022-08-27T11:44:57.446Z,92726.16
2022-08-27T11:46:29.492Z,92725.69
2022-08-27T11:48:01.846Z,92724.00
2022-08-27T11:49:47.683Z,92727.91
2022-08-27T11:51:51.775Z,92729.44
2022-08-27T11:53:28.686Z,92720.75
2022-08-27T11:55:18.942Z,92720.75
2022-08-27T11:56:52.778Z,92726.53
2022-08-27T11:58:26.252Z,92718.00
2022-08-27T11:59:58.207Z,92723.91
2022-08-27T12:01:30.780Z,92725.91
2022-08-27T12:03:05.096Z,92716.44
2022-08-27T12:04:38.426Z,92722.97
2022-08-27T12:06:18.207Z,92718.94
2022-08-27T12:07:51.837Z,92721.09
2022-08-27T12:09:24.063Z,92715.34
2022-08-27T12:11:14.372Z,92712.41
2022-08-27T12:12:46.376Z,92715.38
2022-08-27T12:14:21.580Z,92714.59
2022-08-27T12:16:03.089Z,92711.94
2022-08-27T12:17:37.956Z,92713.19
2022-08-27T12:19:48.438Z,92711.81
2022-08-27T12:21:23.603Z,92708.38
2022-08-27T12:23:29.153Z,92710.56
2022-08-27T12:25:01.518Z,92707.59
2022-08-27T12:26:36.725Z,92707.25
2022-08-27T12:28:09.995Z,92711.00
2022-08-27T12:29:44.067Z,92709.28
2022-08-27T12:31:20.104Z,92709.72
2022-08-27T12:32:52.876Z,92700.38
2022-08-27T12:34:25.713Z,92707.94
2022-08-27T12:35:58.608Z,92707.94
2022-08-27T12:37:32.364Z,92698.56
2022-08-27T12:39:05.810Z,92701.94
2022-08-27T12:40:43.200Z,92698.34
2022-08-27T12:42:16.231Z,92702.16
2022-08-27T12:43:48.619Z,92698.38
2022-08-27T12:45:21.630Z,92702.72
2022-08-27T12:47:00.632Z,92694.34
2022-08-27T12:48:58.965Z,92697.03
2022-08-27T12:50:54.491Z,92692.78
2022-08-27T12:52:29.419Z,92699.69
2022-08-27T12:54:07.713Z,92690.25
2022-08-27T12:55:53.484Z,92697.22
2022-08-27T12:57:33.250Z,92688.25
2022-08-27T12:59:27.279Z,92689.84
2022-08-27T13:01:07.815Z,92687.09
2022-08-27T13:03:02.255Z,92680.44
2022-08-27T13:04:34.119Z,92686.03
2022-08-27T13:06:35.071Z,92679.19
2022-08-27T13:08:07.377Z,92679.19
2022-08-27T13:09:39.722Z,92679.50
2022-08-27T13:11:18.344Z,92682.44
2022-08-27T13:12:59.896Z,92681.38
2022-08-27T13:14:38.945Z,92688.81
2022-08-27T13:16:10.808Z,92689.31
2022-08-27T13:17:43.875Z,92686.34
2022-08-27T13:19:30.960Z,92682.47
2022-08-27T13:21:15.039Z,92681.66
2022-08-27T13:22:47.552Z,92680.44
2022-08-27T13:24:21.570Z,92675.16
2022-08-27T13:25:54.771Z,92674.84
2022-08-27T13:27:27.546Z,92674.38
2022-08-27T13:29:03.226Z,92668.78
2022-08-27T13:30:39.815Z,92665.84
2022-08-27T13:32:12.083Z,92672.25
2022-08-27T13:33:44.240Z,92668.50
2022-08-27T13:35:16.395Z,92666.78
2022-08-27T13:37:02.698Z,92669.09
2022-08-27T13:38:36.315Z,92665.53
2022-08-27T13:40:08.808Z,92662.97
2022-08-27T13:41:40.769Z,92668.81
2022-08-27T13:43:12.780Z,92664.72
2022-08-27T13:44:48.393Z,92665.34
2022-08-27T13:46:21.602Z,92668.72
2022-08-27T13:47:54.108Z,92664.53
2022-08-27T13:49:26.086Z,92670.25
2022-08-27T13:50:58.063Z,92663.63
2022-08-27T13:52:33.928Z,92670.75
2022-08-27T13:54:18.499Z,92664.03
2022-08-27T13:55:51.123Z,92669.56
2022-08-27T13:57:31.607Z,92670.47
2022-08-27T13:59:12.779Z,92674.25
2022-08-27T14:00:45.325Z,92673.09
2022-08-27T14:02:21.177Z,92669.88
2022-08-27T14:04:00.650Z,92668.97
2022-08-27T14:05:37.346Z,92677.00
2022-08-27T14:07:11.618Z,92669.25
2022-08-27T14:08:43.859Z,92665.25
2022-08-27T14:10:18.781Z,92670.50
2022-08-27T14:11:50.822Z,92670.06
2022-08-27T14:13:23.676Z,92663.69
2022-08-27T14:14:55.710Z,92676.50
2022-08-27T14:16:31.887Z,92673.88
2022-08-27T14:18:04.362Z,92674.91
2022-08-27T14:19:37.140Z,92667.25
2022-08-27T14:21:09.683Z,92675.69
2022-08-27T14:22:42.036Z,92686.41
2022-08-27T14:24:14.193Z,92679.34
2022-08-27T14:25:46.539Z,92677.47
2022-08-27T14:27:20.239Z,92678.69
2022-08-27T14:28:52.112Z,92677.59
2022-08-27T14:30:29.433Z,92680.94
2022-08-27T14:32:02.187Z,92681.09
2022-08-27T14:33:34.036Z,92673.63
2022-08-27T14:35:06.215Z,92679.63
2022-08-27T14:36:38.712Z,92680.41
2022-08-27T14:38:15.144Z,92679.75
2022-08-27T14:39:46.880Z,92683.53
2022-08-27T14:41:21.625Z,92679.63
2022-08-27T14:42:54.080Z,92680.53
2022-08-27T14:44:25.967Z,92680.41
2022-08-27T14:45:57.745Z,92675.38
2022-08-27T14:47:33.591Z,92678.88
2022-08-27T14:49:08.318Z,92677.09
2022-08-27T14:50:40.162Z,92678.06
2022-08-27T14:52:12.150Z,92672.28
2022-08-27T14:53:43.998Z,92680.72
2022-08-27T14:55:16.083Z,92683.81
2022-08-27T14:56:47.825Z,92678.03
2022-08-27T14:58:19.976Z,92679.13
2022-08-27T14:59:51.629Z,92674.47
2022-08-27T15:01:24.086Z,92677.56
2022-08-27T15:02:56.139Z,92675.06
2022-08-27T15:04:27.907Z,92676.81
2022-08-27T15:05:59.793Z,92679.72
2022-08-27T15:07:32.336Z,92683.88
2022-08-27T15:09:04.374Z,92675.13
2022-08-27T15:10:36.341Z,92677.16
2022-08-27T15:12:08.220Z,92670.03
2022-08-27T15:13:52.025Z,92673.50
2022-08-27T15:15:24.087Z,92670.28
2022-08-27T15:16:56.199Z,92672.72
2022-08-27T15:18:27.958Z,92677.84
2022-08-27T15:19:59.790Z,92672.50
2022-08-27T15:21:31.612Z,92678.09
2022-08-27T15:23:03.566Z,92678.69
2022-08-27T15:24:39.734Z,92671.56
2022-08-27T15:26:13.026Z,92664.25
2022-08-27T15:27:45.357Z,92662.84
2022-08-27T15:29:17.184Z,92672.81
2022-08-27T15:30:50.038Z,92674.13
2022-08-27T15:32:21.846Z,92666.50
2022-08-27T15:33:57.772Z,92670.38
2022-08-27T15:35:29.778Z,92671.72
2022-08-27T15:37:01.587Z,92669.22
2022-08-27T15:38:33.397Z,92660.53
2022-08-27T15:40:05.567Z,92667.00
2022-08-27T15:41:46.185Z,92664.91
2022-08-27T15:43:28.324Z,92667.50
2022-08-27T15:45:00.162Z,92665.03
2022-08-27T15:46:32.028Z,92667.19
2022-08-27T15:48:03.939Z,92664.63
2022-08-27T15:49:35.848Z,92656.88
2022-08-27T15:51:09.367Z,92667.34
2022-08-27T15:52:41.596Z,92674.41
2022-08-27T15:54:13.292Z,92675.88
2022-08-27T15:55:45.730Z,92675.63
2022-08-27T15:57:20.637Z,92674.22
2022-08-27T15:58:52.607Z,92672.13
2022-08-27T16:00:24.632Z,92668.88
2022-08-27T16:01:56.395Z,92675.22
2022-08-27T16:03:35.397Z,92668.34
2022-08-27T16:05:07.736Z,92673.16
2022-08-27T16:06:39.507Z,92670.84
2022-08-27T16:08:11.603Z,92669.72
2022-08-27T16:09:43.919Z,92669.84
2022-08-27T16:11:15.878Z,92674.28
2022-08-27T16:12:47.543Z,92671.94
2022-08-27T16:14:19.237Z,92672.19
2022-08-27T16:15:51.388Z,92670.88
2022-08-27T16:17:23.809Z,92677.63
2022-08-27T16:18:55.480Z,92673.19
2022-08-27T16:20:27.302Z,92683.19
2022-08-27T16:21:59.065Z,92675.50
2022-08-27T16:23:31.037Z,92684.56
2022-08-27T16:25:03.088Z,92680.78
2022-08-27T16:26:34.878Z,92684.66
2022-08-27T16:28:07.192Z,92686.84
2022-08-27T16:29:39.115Z,92684.25
2022-08-27T16:31:13.666Z,92691.31
2022-08-27T16:32:49.823Z,92698.63
2022-08-27T16:34:23.374Z,92692.06
2022-08-27T16:35:55.489Z,92692.00
2022-08-27T16:37:27.187Z,92695.06
2022-08-27T16:38:58.920Z,92705.66
2022-08-27T16:40:31.180Z,92699.56
2022-08-27T16:42:03.769Z,92705.97
2022-08-27T16:43:35.471Z,92699.84
2022-08-27T16:45:10.310Z,92701.50
2022-08-27T16:46:44.273Z,92704.00
2022-08-27T16:48:34.823Z,92714.03
2022-08-27T16:50:26.303Z,92710.47
2022-08-27T16:51:58.124Z,92714.00
2022-08-27T16:53:33.297Z,92719.44
2022-08-27T16:55:05.127Z,92709.88
2022-08-27T16:56:37.847Z,92716.78
2022-08-27T16:58:11.500Z,92711.13
2022-08-27T16:59:43.330Z,92714.44
2022-08-27T17:01:16.029Z,92712.94
2022-08-27T17:02:47.978Z,92718.28
2022-08-27T17:04:28.490Z,92718.84
2022-08-27T17:06:02.736Z,92719.47
2022-08-27T17:07:34.359Z,92721.72
2022-08-27T17:09:06.054Z,92718.72
2022-08-27T17:10:41.349Z,92720.31
2022-08-27T17:12:13.019Z,92719.53
2022-08-27T17:13:45.282Z,92726.00
2022-08-27T17:15:17.179Z,92724.13
2022-08-27T17:16:49.987Z,92728.63
2022-08-27T17:18:22.726Z,92736.34
2022-08-27T17:19:54.487Z,92733.38
2022-08-27T17:21:29.708Z,92739.47
2022-08-27T17:23:01.970Z,92745.84
2022-08-27T17:24:34.004Z,92736.03
2022-08-27T17:26:06.180Z,92742.47
2022-08-27T17:27:37.831Z,92747.66
2022-08-27T17:29:09.597Z,92749.69
2022-08-27T17:30:41.248Z,92745.09
2022-08-27T17:32:13.436Z,92747.25
2022-08-27T17:33:46.261Z,92749.69
2022-08-27T17:35:18.066Z,92757.59
2022-08-27T17:36:50.318Z,92757.31
2022-08-27T17:38:22.164Z,92754.22
2022-08-27T17:39:58.125Z,92757.06
2022-08-27T17:41:34.464Z,92754.75
2022-08-27T17:43:06.255Z,92755.63
2022-08-27T17:44:38.755Z,92755.25
2022-08-27T17:46:10.734Z,92754.06
2022-08-27T17:47:43.289Z,92750.16
2022-08-27T17:49:15.453Z,92757.31
2022-08-27T17:50:47.172Z,92756.56
2022-08-27T17:52:19.078Z,92762.09
2022-08-27T17:53:54.227Z,92755.06
2022-08-27T17:55:31.265Z,92757.47
2022-08-27T17:57:03.918Z,92761.44
2022-08-27T17:58:35.633Z,92768.53
2022-08-27T18:00:07.966Z,92769.72
2022-08-27T18:01:41.444Z,92768.97
2022-08-27T18:03:16.749Z,92772.09
2022-08-27T18:04:48.525Z,92771.72
2022-08-27T18:06:20.467Z,92776.00
2022-08-27T18:07:52.492Z,92772.91
2022-08-27T18:09:24.336Z,92773.75
2022-08-27T18:10:56.090Z,92771.78
2022-08-27T18:12:27.801Z,92778.47
2022-08-27T18:14:04.582Z,92776.19
2022-08-27T18:15:41.847Z,92782.13
2022-08-27T18:17:13.973Z,92777.91
2022-08-27T18:18:45.982Z,92772.06
2022-08-27T18:20:17.788Z,92773.31
2022-08-27T18:21:49.695Z,92781.22
2022-08-27T18:23:22.060Z,92783.97
2022-08-27T18:24:53.995Z,92779.69
2022-08-27T18:26:27.089Z,92786.78
2022-08-27T18:27:59.280Z,92784.06
2022-08-27T18:29:31.179Z,92779.38
2022-08-27T18:31:06.440Z,92794.31
2022-08-27T18:32:39.147Z,92788.47
2022-08-27T18:34:11.168Z,92792.84
2022-08-27T18:35:43.065Z,92796.41
2022-08-27T18:37:14.921Z,92794.09
2022-08-27T18:38:47.539Z,92794.47
2022-08-27T18:40:20.300Z,92793.72
2022-08-27T18:41:52.196Z,92793.75
2022-08-27T18:43:25.303Z,92804.00
2022-08-27T18:44:57.273Z,92798.16
2022-08-27T18:46:29.168Z,92800.13
2022-08-27T18:48:02.640Z,92802.91
2022-08-27T18:49:35.144Z,92807.25
2022-08-27T18:51:08.083Z,92812.78
2022-08-27T18:52:40.172Z,92810.41
2022-08-27T18:54:11.962Z,92803.72
2022-08-27T18:55:44.454Z,92813.56
2022-08-27T18:57:16.335Z,92813.56
2022-08-27T18:58:51.113Z,92810.44
2022-08-27T19:00:22.996Z,92815.56
2022-08-27T19:01:55.634Z,92810.47
2022-08-27T19:03:31.714Z,92814.78